Indianapolis, Indiana
Traffic Map
Current Weather Conditions
Indianapolis, Indiana
Broken Clouds
Broken Clouds
86°
Feels Like: 90°
Wind Chill: 86° Ceiling: 14000
Heat Index: 90° Visibility: 10mi
Dew Point: 69° Wind: 8mph
Humidity: 57% Direction: 170° (S)
Pressure: 29.97in Gusts: 0mph
Raw Report DataKIND 161954Z 17007KT 10SM FEW038 BKN140 BKN250 30/21 A2997 RMK AO2 SLP140 T03000206
Traffic Incident Summary
Active as of:
Severity:
Category:
InformationThere was an issue retrieving the traffic information for this location. Please try a different location or try again shortly.
Advertisements